Flight Track Log - Related Links

Times and Time Zones

All times are in EDT time to prevent confusion due to time zone crossing. See the SWA3497 flight status page for this flight to view local times or setup timezone preferences in your user account.


Time Position Orientation Groundspeed Altitude Reporting Facility
EDT Latitude Longitude Course Direction KTS MPH feet Rate Location/Type
Fri 12:27:38 PM 41.7000 -87.8167 206° Southwest 224 258 5,100  Level Chicago TRACON
Fri 12:29:07 PM 41.6100 -87.7928 169° South 260 299 9,400 2,861 Climbing Chicago Center
Fri 12:30:09 PM 41.5158 -87.7592 165° South 288 331 12,300 2,661 Climbing Chicago Center
Fri 12:31:11 PM 41.4267 -87.7292 166° South 318 366 14,900 2,661 Climbing Chicago Center
Fri 12:32:13 PM 41.3286 -87.7067 170° South 344 396 17,800 2,613 Climbing Chicago Center
Fri 12:33:15 PM 41.2217 -87.6778 169° South 378 435 20,300 2,516 Climbing Chicago Center
Fri 12:34:17 PM 41.1133 -87.6500 169° South 391 450 23,000 1,306 Climbing Chicago Center
Fri 12:35:19 PM 40.9975 -87.6200 169° South 412 474 23,000  Level Chicago Center
Fri 12:36:21 PM 40.8744 -87.5889 169° South 448 516 23,000  Level Chicago Center
Fri 12:37:24 PM 40.7294 -87.5517 169° South 444 511 23,000  Level Chicago Center
Fri 12:38:26 PM 40.6089 -87.5219 169° South 443 510 23,000  Level Chicago Center
Fri 12:39:28 PM 40.4892 -87.4917 169° South 439 505 23,000 -145 Level Chicago Center
Fri 12:40:30 PM 40.3686 -87.4622 169° South 443 510 22,700 -726 Descending Chicago Center
Fri 12:41:32 PM 40.2314 -87.4308 170° South 444 511 21,500 -1,065 Descending Chicago Center
Fri 12:42:34 PM 40.1131 -87.3994 169° South 436 502 20,500 -968 Descending Chicago Center
Fri 12:43:36 PM 39.9964 -87.3728 170° South 427 491 19,500 -769 Descending Chicago Center
Fri 12:44:31 PM 39.8836 -87.3450 169° South 411 473 19,000 -256 Descending Indianapolis Center
Fri 12:45:33 PM 39.7722 -87.3183 170° South 407 468 19,000  Level Indianapolis Center
Fri 12:46:35 PM 39.6611 -87.2908 169° South 406 467 19,000  Level Indianapolis Center
Fri 12:47:37 PM 39.5494 -87.2561 167° South 410 472 19,000  Level Indianapolis Center
Fri 12:48:39 PM 39.4417 -87.1914 155° Southeast 422 486 19,000  Level Indianapolis Center
Fri 12:49:41 PM 39.3358 -87.1317 156° South 418 481 19,000  Level Indianapolis Center
Fri 12:50:43 PM 39.2106 -87.0622 157° South 418 481 19,000  Level Indianapolis Center
Fri 12:51:45 PM 39.1097 -87.0031 156° South 416 479 19,000  Level Indianapolis Center
Fri 12:52:47 PM 39.0050 -86.9456 157° South 409 471 19,000  Level Indianapolis Center
Fri 12:53:49 PM 38.9008 -86.8861 156° South 407 468 19,000 -290 Level Indianapolis Center
Fri 12:54:51 PM 38.7956 -86.8269 156° South 409 471 18,400 -532 Descending Indianapolis Center
Fri 12:55:53 PM 38.6922 -86.7700 157° South 401 461 17,900 -726 Descending Indianapolis Center
Fri 12:56:55 PM 38.5892 -86.7131 157° South 398 458 16,900 -1,065 Descending Indianapolis Center
Fri 12:57:57 PM 38.4706 -86.6469 156° South 382 440 15,700 -1,258 Descending Indianapolis Center
Fri 12:58:59 PM 38.3728 -86.5936 157° South 377 434 14,300 -1,790 Descending Indianapolis Center
Fri 01:00:01 PM 38.2803 -86.5411 156° South 362 417 12,000 -1,597 Descending Indianapolis Center
Fri 01:01:03 PM 38.2211 -86.4506 130° Southeast 344 396 11,000 -823 Descending Indianapolis Center
Fri 01:02:05 PM 38.2056 -86.3358 100° East 329 379 10,300 -823 Descending Indianapolis Center
Fri 01:03:07 PM 38.1931 -86.2333 99° East 301 346 9,300 -1,161 Descending Indianapolis Center
Fri 01:04:09 PM 38.1803 -86.1364 99° East 283 326 7,900 -1,113 Descending Indianapolis Center
Fri 01:05:11 PM 38.1678 -86.0419 100° East 274 315 7,000 -435 Descending Indianapolis Center
Fri 01:06:13 PM 38.1536 -85.9467 101° East 233 268 7,000  Level Indianapolis Center
Fri 01:07:16 PM 38.1431 -85.8689 100° East 223 257 7,000  Level Indianapolis Center
Fri 01:08:18 PM 38.1619 -85.8053 69° East 253 291 7,000 -387 Level Indianapolis Center
Fri 01:09:20 PM 38.2156 -85.8472 328° Northwest 230 265 6,200 -968 Descending Indianapolis Center
Fri 01:10:22 PM 38.2694 -85.8919 327° Northwest 230 265 5,000 -1,258 Descending Indianapolis Center
Fri 01:11:24 PM 38.3206 -85.9006 352° North 234 269 3,600 -968 Descending Indianapolis Center
Fri 01:12:26 PM 38.3056 -85.8339 106° East 211 243 3,000 -484 Descending Indianapolis Center
Fri 01:13:28 PM 38.2769 -85.7769 123° Southeast 193 222 2,600 -387 Descending Indianapolis Center
Fri 01:16:00 PM 38.1741 -85.7365 137° Southeast  Level Estimated

Login

Don't have an account? Register now (free) for customized features, flight alerts, and more!